Time;durP1;ratioP1;P1;durP2;ratioP2;P2;SDS_P1;SDS_P2;PMS_P1;PMS_P2;Temp;Humidity;BMP_temperature;BMP_pressure;BME280_temperature;BME280_humidity;BME280_pressure;Samples;Min_cycle;Max_cycle;Signal;HPM_P1;HPM_P2
2024/04/04 00:00:40;;;;;;;;;;;;;;;;;;5084445;28;5113;-58
2024/04/04 00:03:06;;;;;;;;;;;;;;;;;;5080921;28;4601;-57
2024/04/04 00:05:32;;;;;;;;;;;;;;;;;;5083639;28;3369;-58
2024/04/04 00:07:57;;;;;;;;;;;;;;;;;;5084681;28;4990;-58
2024/04/04 00:10:23;;;;;;;;;;;;;;;;;;5086098;28;5067;-57
2024/04/04 00:12:49;;;;;;;;;;;;;;;;;;5086116;28;5066;-57
2024/04/04 00:15:14;;;;;;;;;;;;;;;;;;5083087;28;5029;-58
2024/04/04 00:17:39;;;;;;;;;;;;;;;;;;5088367;28;3632;-57
2024/04/04 00:20:06;;;;;;;;;;;;;;;;;;5086970;28;4483;-58
2024/04/04 00:22:31;;;;;;;;;;;;;;;;;;5084625;28;5099;-58
2024/04/04 00:24:56;;;;;;;;;;;;;;;;;;5086501;28;5320;-58
2024/04/04 00:27:22;;;;;;;;;;;;;;;;;;5086426;28;5100;-57
2024/04/04 00:29:47;;;;;;;;;;;;;;;;;;5085307;28;5070;-58
2024/04/04 00:32:12;;;;;;;;;;;;;;;;;;5088385;28;1407;-58
2024/04/04 00:34:38;;;;;;;;;;;;;;;;;;5084141;28;4544;-58
2024/04/04 00:37:06;;;;;;;;;;;;;;;;;;5086234;28;4458;-58
2024/04/04 00:39:31;;;;;;;;;;;;;;;;;;5082288;28;4735;-58
2024/04/04 00:41:57;;;;;;;;;;;;;;;;;;5090726;28;5117;-58
2024/04/04 00:44:22;;;;;;;;;;;;;;;;;;5088465;28;1042;-57
2024/04/04 00:46:47;;;;;;;;;;;;;;;;;;5080586;28;5092;-58
2024/04/04 00:49:13;;;;;;;;;;;;;;;;;;5083545;28;4719;-57
2024/04/04 00:51:38;;;;;;;;;;;;;;;;;;5086143;28;4497;-57
2024/04/04 00:54:03;;;;;;;;;;;;;;;;;;5081524;28;4618;-59
2024/04/04 00:56:29;;;;;;;;;;;;;;;;;;5082276;28;3659;-58
2024/04/04 00:58:54;;;;;;;;;;;;;;;;;;5080246;28;5019;-58
2024/04/04 01:01:19;;;;;;;;;;;;;;;;;;5075823;28;5061;-58
2024/04/04 01:03:45;;;;;;;;;;;;;;;;;;5084840;28;4886;-58
2024/04/04 01:06:10;;;;;;;;;;;;;;;;;;5077680;28;5030;-58
2024/04/04 01:08:35;;;;;;;;;;;;;;;;;;5084616;28;3656;-58
2024/04/04 01:11:01;;;;;;;;;;;;;;;;;;5082129;28;5034;-58
2024/04/04 01:13:26;;;;;;;;;;;;;;;;;;5081093;28;5058;-58
2024/04/04 01:15:52;;;;;;;;;;;;;;;;;;5082251;28;5063;-57
2024/04/04 01:18:18;;;;;;;;;;;;;;;;;;5082548;28;5213;-57
2024/04/04 01:20:44;;;;;;;;;;;;;;;;;;5086158;28;5114;-59
2024/04/04 01:23:09;;;;;;;;;;;;;;;;;;5086026;28;3525;-57
2024/04/04 01:25:34;;;;;;;;;;;;;;;;;;5085175;28;4980;-57
2024/04/04 01:28:00;;;;;;;;;;;;;;;;;;5085534;28;4466;-58
2024/04/04 01:30:25;;;;;;;;;;;;;;;;;;5085951;28;5046;-58
2024/04/04 01:32:50;;;;;;;;;;;;;;;;;;5086032;28;4699;-58
2024/04/04 01:35:16;;;;;;;;;;;;;;;;;;5087097;28;2539;-58
2024/04/04 01:37:41;;;;;;;;;;;;;;;;;;5083354;28;5235;-58
2024/04/04 01:40:08;;;;;;;;;;;;;;;;;;5083718;28;5151;-58
2024/04/04 01:42:33;;;;;;;;;;;;;;;;;;5085367;28;4483;-58
2024/04/04 01:44:59;;;;;;;;;;;;;;;;;;5085426;28;5084;-58
2024/04/04 01:47:24;;;;;;;;;;;;;;;;;;5084248;28;3603;-58
2024/04/04 01:49:49;;;;;;;;;;;;;;;;;;5085696;28;5233;-58
2024/04/04 01:52:15;;;;;;;;;;;;;;;;;;5085415;28;5162;-58
2024/04/04 01:54:40;;;;;;;;;;;;;;;;;;5086688;28;4918;-58
2024/04/04 01:57:06;;;;;;;;;;;;;;;;;;5084262;28;5043;-58
2024/04/04 01:59:31;;;;;;;;;;;;;;;;;;5087033;28;1984;-57
2024/04/04 02:01:56;;;;;;;;;;;;;;;;;;5086405;28;4591;-57
2024/04/04 02:04:22;;;;;;;;;;;;;;;;;;5087007;28;5057;-57
2024/04/04 02:06:47;;;;;;;;;;;;;;;;;;5084147;28;5325;-58
2024/04/04 02:09:12;;;;;;;;;;;;;;;;;;5085718;28;5202;-58
2024/04/04 02:11:38;;;;;;;;;;;;;;;;;;5087481;28;1214;-58
2024/04/04 02:14:03;;;;;;;;;;;;;;;;;;5085303;28;4998;-58
2024/04/04 02:16:29;;;;;;;;;;;;;;;;;;5086236;28;5306;-58
2024/04/04 02:18:54;;;;;;;;;;;;;;;;;;5089322;28;5226;-58
2024/04/04 02:21:19;;;;;;;;;;;;;;;;;;5089349;28;5096;-58
2024/04/04 02:23:45;;;;;;;;;;;;;;;;;;5091229;28;5118;-58
2024/04/04 02:26:10;;;;;;;;;;;;;;;;;;5091252;28;1171;-59
2024/04/04 02:28:36;;;;;;;;;;;;;;;;;;5088483;28;5010;-58
2024/04/04 02:31:01;;;;;;;;;;;;;;;;;;5088836;28;4480;-59
2024/04/04 02:33:26;;;;;;;;;;;;;;;;;;5089319;28;5087;-59
2024/04/04 02:35:53;;;;;;;;;;;;;;;;;;5088777;28;4925;-58
2024/04/04 02:38:18;;;;;;;;;;;;;;;;;;5090584;28;1244;-58
2024/04/04 02:40:43;;;;;;;;;;;;;;;;;;5088168;28;4446;-58
2024/04/04 02:43:09;;;;;;;;;;;;;;;;;;5089772;28;4878;-59
2024/04/04 02:45:35;;;;;;;;;;;;;;;;;;5086297;28;4550;-59
2024/04/04 02:48:01;;;;;;;;;;;;;;;;;;5088207;28;4560;-58
2024/04/04 02:50:27;;;;;;;;;;;;;;;;;;5088067;28;3351;-59
2024/04/04 02:52:53;;;;;;;;;;;;;;;;;;5087967;28;4813;-58
2024/04/04 02:55:18;;;;;;;;;;;;;;;;;;5088687;28;4489;-58
2024/04/04 02:57:44;;;;;;;;;;;;;;;;;;5088046;28;4985;-58
2024/04/04 03:00:09;;;;;;;;;;;;;;;;;;5084677;28;5091;-58
2024/04/04 03:02:35;;;;;;;;;;;;;;;;;;5090457;28;1177;-58
2024/04/04 03:05:00;;;;;;;;;;;;;;;;;;5081151;28;4981;-59
2024/04/04 03:07:26;;;;;;;;;;;;;;;;;;5087646;28;4955;-59
2024/04/04 03:09:52;;;;;;;;;;;;;;;;;;5082340;28;4719;-59
2024/04/04 03:12:17;;;;;;;;;;;;;;;;;;5082242;28;5194;-59
2024/04/04 03:14:43;;;;;;;;;;;;;;;;;;5088448;28;4674;-60
2024/04/04 03:17:08;;;;;;;;;;;;;;;;;;5087343;28;3535;-58
2024/04/04 03:19:33;;;;;;;;;;;;;;;;;;5086950;28;4652;-59
2024/04/04 03:21:59;;;;;;;;;;;;;;;;;;5089083;28;4871;-59
2024/04/04 03:24:24;;;;;;;;;;;;;;;;;;5086982;28;4895;-59
2024/04/04 03:26:50;;;;;;;;;;;;;;;;;;5087705;28;4468;-59
2024/04/04 03:29:15;;;;;;;;;;;;;;;;;;5088950;28;1023;-59
2024/04/04 03:31:40;;;;;;;;;;;;;;;;;;5087699;28;5028;-58
2024/04/04 03:34:06;;;;;;;;;;;;;;;;;;5086725;28;4694;-59
2024/04/04 03:36:31;;;;;;;;;;;;;;;;;;5081908;28;5100;-59
2024/04/04 03:38:57;;;;;;;;;;;;;;;;;;5087476;28;5130;-58
2024/04/04 03:41:22;;;;;;;;;;;;;;;;;;5085882;28;3508;-57
2024/04/04 03:43:47;;;;;;;;;;;;;;;;;;5083567;28;4588;-57
2024/04/04 03:46:13;;;;;;;;;;;;;;;;;;5086847;28;5024;-57
2024/04/04 03:48:38;;;;;;;;;;;;;;;;;;5092035;28;5365;-58
2024/04/04 03:51:04;;;;;;;;;;;;;;;;;;5086846;28;4891;-58
2024/04/04 03:53:29;;;;;;;;;;;;;;;;;;5086365;28;3476;-59
2024/04/04 03:55:54;;;;;;;;;;;;;;;;;;5085930;28;4957;-58
2024/04/04 03:58:20;;;;;;;;;;;;;;;;;;5085795;28;4615;-58
2024/04/04 04:00:45;;;;;;;;;;;;;;;;;;5078334;28;4583;-58
2024/04/04 04:03:10;;;;;;;;;;;;;;;;;;5078646;28;5156;-59
2024/04/04 04:05:36;;;;;;;;;;;;;;;;;;5080976;28;3617;-58
2024/04/04 04:08:01;;;;;;;;;;;;;;;;;;5083756;28;4500;-59
2024/04/04 04:10:31;;;;;;;;;;;;;;;;;;5083761;28;5206;-58
2024/04/04 04:12:59;;;;;;;;;;;;;;;;;;5080856;28;5153;-59
2024/04/04 04:15:26;;;;;;;;;;;;;;;;;;5083517;28;5057;-59
2024/04/04 04:17:51;;;;;;;;;;;;;;;;;;5085615;28;5651;-58
2024/04/04 04:23:00;;;;;;;;;;;;;;;;;;5086156;28;5195;-59
2024/04/04 04:25:25;;;;;;;;;;;;;;;;;;5086532;28;5275;-58
2024/04/04 04:27:51;;;;;;;;;;;;;;;;;;5081762;28;4729;-59
2024/04/04 04:30:16;;;;;;;;;;;;;;;;;;5078838;28;5062;-59
2024/04/04 04:32:42;;;;;;;;;;;;;;;;;;5086085;28;5940;-59
2024/04/04 04:35:07;;;;;;;;;;;;;;;;;;5086433;28;3405;-58
2024/04/04 04:37:35;;;;;;;;;;;;;;;;;;5078611;28;5012;-58
2024/04/04 04:40:01;;;;;;;;;;;;;;;;;;5084211;28;5079;-59
2024/04/04 04:42:26;;;;;;;;;;;;;;;;;;5080725;28;4597;-57
2024/04/04 04:44:51;;;;;;;;;;;;;;;;;;5086290;28;5012;-59
2024/04/04 04:47:17;;;;;;;;;;;;;;;;;;5088563;28;1083;-59
2024/04/04 04:49:42;;;;;;;;;;;;;;;;;;5085582;28;5365;-59
2024/04/04 04:52:07;;;;;;;;;;;;;;;;;;5083714;28;5039;-60
2024/04/04 04:54:33;;;;;;;;;;;;;;;;;;5084898;28;4535;-58
2024/04/04 04:56:59;;;;;;;;;;;;;;;;;;5087043;28;5034;-61
2024/04/04 04:59:25;;;;;;;;;;;;;;;;;;5085664;28;3490;-62
2024/04/04 05:01:50;;;;;;;;;;;;;;;;;;5081913;28;4499;-63
2024/04/04 05:04:16;;;;;;;;;;;;;;;;;;5082988;28;5168;-63
2024/04/04 05:06:46;;;;;;;;;;;;;;;;;;5080922;28;4521;-64
2024/04/04 05:09:12;;;;;;;;;;;;;;;;;;5082411;28;5083;-62
2024/04/04 05:11:38;;;;;;;;;;;;;;;;;;5084120;28;3485;-62
2024/04/04 05:14:04;;;;;;;;;;;;;;;;;;5076896;28;4974;-60
2024/04/04 05:16:29;;;;;;;;;;;;;;;;;;5081634;28;5026;-60
2024/04/04 05:18:55;;;;;;;;;;;;;;;;;;5082087;28;4442;-61
2024/04/04 05:21:20;;;;;;;;;;;;;;;;;;5077803;28;5120;-59
2024/04/04 05:23:45;;;;;;;;;;;;;;;;;;5077015;28;5050;-60
2024/04/04 05:26:12;;;;;;;;;;;;;;;;;;5085412;28;3305;-62
2024/04/04 05:28:38;;;;;;;;;;;;;;;;;;5078549;28;5040;-62
2024/04/04 05:31:04;;;;;;;;;;;;;;;;;;5081760;28;5101;-61
2024/04/04 05:33:29;;;;;;;;;;;;;;;;;;5082055;28;4929;-61
2024/04/04 05:35:54;;;;;;;;;;;;;;;;;;5084029;28;5193;-60
2024/04/04 05:38:20;;;;;;;;;;;;;;;;;;5087324;28;1083;-61
2024/04/04 05:40:46;;;;;;;;;;;;;;;;;;5085583;28;5098;-61
2024/04/04 05:43:11;;;;;;;;;;;;;;;;;;5086220;28;5029;-61
2024/04/04 05:45:37;;;;;;;;;;;;;;;;;;5085846;28;4659;-62
2024/04/04 05:48:02;;;;;;;;;;;;;;;;;;5087432;28;4997;-62
2024/04/04 05:50:28;;;;;;;;;;;;;;;;;;5081159;28;1248;-62
2024/04/04 05:52:53;;;;;;;;;;;;;;;;;;5091058;28;4939;-62
2024/04/04 05:55:19;;;;;;;;;;;;;;;;;;5089549;28;5209;-62
2024/04/04 05:57:44;;;;;;;;;;;;;;;;;;5089774;28;5086;-62
2024/04/04 06:00:10;;;;;;;;;;;;;;;;;;5090091;28;4659;-62
2024/04/04 06:02:35;;;;;;;;;;;;;;;;;;5091282;28;1387;-62
2024/04/04 06:05:00;;;;;;;;;;;;;;;;;;5086323;28;4483;-62
2024/04/04 06:07:26;;;;;;;;;;;;;;;;;;5094437;28;5228;-62
2024/04/04 06:09:51;;;;;;;;;;;;;;;;;;5086672;28;4931;-61
2024/04/04 06:12:16;;;;;;;;;;;;;;;;;;5082645;28;5316;-62
2024/04/04 06:14:42;;;;;;;;;;;;;;;;;;5090946;28;4495;-61
2024/04/04 06:17:07;;;;;;;;;;;;;;;;;;5091424;28;1135;-61
2024/04/04 06:19:32;;;;;;;;;;;;;;;;;;5088943;28;5119;-61
2024/04/04 06:21:58;;;;;;;;;;;;;;;;;;5090790;28;5061;-61
2024/04/04 06:24:23;;;;;;;;;;;;;;;;;;5090705;28;4955;-61
2024/04/04 06:26:49;;;;;;;;;;;;;;;;;;5089054;28;4544;-61
2024/04/04 06:29:15;;;;;;;;;;;;;;;;;;5088878;28;3298;-61
2024/04/04 06:31:41;;;;;;;;;;;;;;;;;;5085028;28;5005;-61
2024/04/04 06:34:06;;;;;;;;;;;;;;;;;;5090318;28;5254;-61
2024/04/04 06:36:31;;;;;;;;;;;;;;;;;;5089041;28;5355;-61
2024/04/04 06:39:02;;;;;;;;;;;;;;;;;;5088412;28;4487;-60
2024/04/04 06:41:27;;;;;;;;;;;;;;;;;;5082615;28;3491;-61
2024/04/04 06:43:52;;;;;;;;;;;;;;;;;;5088258;28;4660;-61
2024/04/04 06:46:18;;;;;;;;;;;;;;;;;;5094657;28;5156;-61
2024/04/04 06:48:43;;;;;;;;;;;;;;;;;;5090400;28;5104;-61
2024/04/04 06:51:08;;;;;;;;;;;;;;;;;;5089660;28;5032;-61
2024/04/04 06:53:34;;;;;;;;;;;;;;;;;;5090306;28;1108;-61
2024/04/04 06:55:59;;;;;;;;;;;;;;;;;;5087933;28;4410;-60
2024/04/04 06:58:24;;;;;;;;;;;;;;;;;;5089850;28;4935;-61
2024/04/04 07:00:56;;;;;;;;;;;;;;;;;;5088696;28;5485;-61
2024/04/04 07:03:22;;;;;;;;;;;;;;;;;;5090370;28;5100;-61
2024/04/04 07:05:47;;;;;;;;;;;;;;;;;;5088480;28;5175;-60
2024/04/04 07:08:12;;;;;;;;;;;;;;;;;;5090619;28;1080;-61
2024/04/04 07:10:38;;;;;;;;;;;;;;;;;;5087909;28;5030;-61
2024/04/04 07:13:03;;;;;;;;;;;;;;;;;;5086152;28;5177;-61
2024/04/04 07:15:29;;;;;;;;;;;;;;;;;;5091321;28;4673;-61
2024/04/04 07:17:54;;;;;;;;;;;;;;;;;;5087671;28;5091;-61
2024/04/04 07:20:19;;;;;;;;;;;;;;;;;;5088555;28;3330;-62
2024/04/04 07:22:45;;;;;;;;;;;;;;;;;;5089427;28;5056;-61
2024/04/04 07:25:10;;;;;;;;;;;;;;;;;;5086200;28;4678;-60
2024/04/04 07:27:35;;;;;;;;;;;;;;;;;;5088931;28;5171;-61
2024/04/04 07:30:01;;;;;;;;;;;;;;;;;;5086132;28;5235;-61
2024/04/04 07:32:26;;;;;;;;;;;;;;;;;;5089801;28;1263;-61
2024/04/04 07:34:51;;;;;;;;;;;;;;;;;;5087502;28;4482;-61
2024/04/04 07:37:17;;;;;;;;;;;;;;;;;;5085811;28;5019;-61
2024/04/04 07:39:42;;;;;;;;;;;;;;;;;;5085207;28;5040;-62
2024/04/04 07:42:07;;;;;;;;;;;;;;;;;;5103280;28;4993;-61
2024/04/04 07:44:33;;;;;;;;;;;;;;;;;;5089670;28;1092;-61
2024/04/04 07:46:58;;;;;;;;;;;;;;;;;;5088539;28;5020;-62
2024/04/04 07:49:24;;;;;;;;;;;;;;;;;;5086982;28;5045;-62
2024/04/04 07:51:49;;;;;;;;;;;;;;;;;;5088855;28;4651;-61
2024/04/04 07:54:14;;;;;;;;;;;;;;;;;;5091194;28;5013;-61
2024/04/04 07:56:40;;;;;;;;;;;;;;;;;;5087528;28;3211;-61
2024/04/04 07:59:06;;;;;;;;;;;;;;;;;;5084732;28;5068;-61
2024/04/04 08:01:31;;;;;;;;;;;;;;;;;;5087131;28;4956;-61
2024/04/04 08:03:57;;;;;;;;;;;;;;;;;;5088454;28;4456;-61
2024/04/04 08:06:22;;;;;;;;;;;;;;;;;;5087859;28;4948;-61
2024/04/04 08:08:47;;;;;;;;;;;;;;;;;;5086795;28;5087;-61
2024/04/04 08:11:14;;;;;;;;;;;;;;;;;;5082906;28;3377;-60
2024/04/04 08:13:40;;;;;;;;;;;;;;;;;;5082078;28;4499;-61
2024/04/04 08:16:05;;;;;;;;;;;;;;;;;;5088388;28;4997;-61
2024/04/04 08:18:31;;;;;;;;;;;;;;;;;;5089078;28;5065;-61
2024/04/04 08:20:56;;;;;;;;;;;;;;;;;;5084488;28;5088;-61
2024/04/04 08:23:22;;;;;;;;;;;;;;;;;;5085374;28;3343;-61
2024/04/04 08:25:54;;;;;;;;;;;;;;;;;;5085535;28;4832;-61
2024/04/04 08:28:20;;;;;;;;;;;;;;;;;;5087911;28;4657;-61
2024/04/04 08:30:46;;;;;;;;;;;;;;;;;;5088211;28;4880;-61
2024/04/04 08:33:11;;;;;;;;;;;;;;;;;;5087604;28;4979;-61
2024/04/04 08:35:36;;;;;;;;;;;;;;;;;;5087748;28;2190;-61
2024/04/04 08:38:02;;;;;;;;;;;;;;;;;;5087216;28;5197;-61
2024/04/04 08:40:27;;;;;;;;;;;;;;;;;;5082852;28;5006;-61
2024/04/04 08:42:52;;;;;;;;;;;;;;;;;;5085969;28;4566;-61
2024/04/04 08:45:19;;;;;;;;;;;;;;;;;;5087870;28;4489;-61
2024/04/04 08:47:44;;;;;;;;;;;;;;;;;;5085781;28;4528;-61
2024/04/04 08:50:10;;;;;;;;;;;;;;;;;;5084892;28;3370;-61
2024/04/04 08:52:35;;;;;;;;;;;;;;;;;;5089892;28;4984;-61
2024/04/04 08:55:00;;;;;;;;;;;;;;;;;;5085481;28;5111;-62
2024/04/04 08:57:26;;;;;;;;;;;;;;;;;;5087105;28;5007;-61
2024/04/04 08:59:55;;;;;;;;;;;;;;;;;;5079725;28;4926;-62
2024/04/04 09:02:20;;;;;;;;;;;;;;;;;;5087850;28;1191;-62
2024/04/04 09:04:46;;;;;;;;;;;;;;;;;;5085914;28;4480;-62
2024/04/04 09:07:11;;;;;;;;;;;;;;;;;;5085635;28;4883;-62
2024/04/04 09:09:43;;;;;;;;;;;;;;;;;;5083788;28;5139;-61
2024/04/04 09:12:10;;;;;;;;;;;;;;;;;;5079022;28;5026;-62
2024/04/04 09:14:35;;;;;;;;;;;;;;;;;;5088288;28;1135;-61
2024/04/04 09:17:01;;;;;;;;;;;;;;;;;;5090515;28;4956;-61
2024/04/04 09:19:26;;;;;;;;;;;;;;;;;;5087147;28;5060;-61
2024/04/04 09:21:51;;;;;;;;;;;;;;;;;;5085082;28;4702;-61
2024/04/04 09:24:18;;;;;;;;;;;;;;;;;;5085245;28;4820;-61
2024/04/04 09:26:43;;;;;;;;;;;;;;;;;;5086142;28;4687;-61
2024/04/04 09:29:09;;;;;;;;;;;;;;;;;;5087110;28;3712;-61
2024/04/04 09:31:36;;;;;;;;;;;;;;;;;;5090867;28;4460;-61
2024/04/04 09:34:01;;;;;;;;;;;;;;;;;;5091314;28;4899;-62
2024/04/04 09:36:29;;;;;;;;;;;;;;;;;;5090457;28;4994;-61
2024/04/04 09:38:55;;;;;;;;;;;;;;;;;;5089462;28;5027;-61
2024/04/04 09:41:21;;;;;;;;;;;;;;;;;;5087053;28;3523;-60
2024/04/04 09:43:46;;;;;;;;;;;;;;;;;;5091011;28;4610;-62
2024/04/04 09:46:12;;;;;;;;;;;;;;;;;;5089755;28;4685;-60
2024/04/04 09:48:37;;;;;;;;;;;;;;;;;;5088095;28;5019;-61
2024/04/04 09:51:03;;;;;;;;;;;;;;;;;;5088624;28;5007;-60
2024/04/04 09:53:28;;;;;;;;;;;;;;;;;;5092414;28;3409;-61
2024/04/04 09:55:54;;;;;;;;;;;;;;;;;;5089420;28;4687;-61
2024/04/04 09:58:19;;;;;;;;;;;;;;;;;;5090767;28;4454;-61
2024/04/04 10:00:44;;;;;;;;;;;;;;;;;;5089621;28;4704;-61
2024/04/04 10:03:13;;;;;;;;;;;;;;;;;;5089846;28;4528;-61
2024/04/04 10:05:38;;;;;;;;;;;;;;;;;;5088675;28;3609;-60
2024/04/04 10:08:11;;;;;;;;;;;;;;;;;;5090865;28;5002;-61
2024/04/04 10:10:36;;;;;;;;;;;;;;;;;;5089128;28;5040;-61
2024/04/04 10:13:08;;;;;;;;;;;;;;;;;;5089088;28;4490;-61
2024/04/04 10:16:03;;;;;;;;;;;;;;;;;;5090869;28;5215;-62
2024/04/04 10:18:28;;;;;;;;;;;;;;;;;;5071121;28;5334;-61
2024/04/04 10:20:54;;;;;;;;;;;;;;;;;;5089758;28;5215;-62
2024/04/04 10:23:24;;;;;;;;;;;;;;;;;;5089824;28;1190;-61
2024/04/04 10:25:49;;;;;;;;;;;;;;;;;;5086161;28;4583;-63
2024/04/04 10:28:15;;;;;;;;;;;;;;;;;;5090084;28;5030;-63
2024/04/04 10:30:42;;;;;;;;;;;;;;;;;;5090037;28;4964;-62
2024/04/04 10:33:15;;;;;;;;;;;;;;;;;;5090495;28;4976;-61
2024/04/04 10:35:40;;;;;;;;;;;;;;;;;;5090717;28;2720;-62
2024/04/04 10:38:06;;;;;;;;;;;;;;;;;;5090190;28;5000;-61
2024/04/04 10:40:32;;;;;;;;;;;;;;;;;;5084000;28;4969;-61
2024/04/04 10:42:57;;;;;;;;;;;;;;;;;;5090181;28;4864;-62
2024/04/04 10:45:28;;;;;;;;;;;;;;;;;;5088721;28;4628;-61
2024/04/04 10:48:02;;;;;;;;;;;;;;;;;;5082218;28;4502;-61
2024/04/04 10:50:29;;;;;;;;;;;;;;;;;;5088742;28;3139;-61
2024/04/04 10:52:54;;;;;;;;;;;;;;;;;;5089998;28;5045;-62
2024/04/04 10:55:20;;;;;;;;;;;;;;;;;;5085073;28;5075;-61
2024/04/04 10:57:48;;;;;;;;;;;;;;;;;;5086513;28;5141;-61
2024/04/04 11:00:14;;;;;;;;;;;;;;;;;;5088775;28;4716;-62
2024/04/04 11:02:43;;;;;;;;;;;;;;;;;;5088780;28;1296;-62
2024/04/04 11:05:08;;;;;;;;;;;;;;;;;;5089543;28;5126;-62
2024/04/04 11:07:34;;;;;;;;;;;;;;;;;;5089713;28;5226;-62
2024/04/04 11:09:59;;;;;;;;;;;;;;;;;;5069053;28;5112;-62
2024/04/04 11:12:24;;;;;;;;;;;;;;;;;;5089209;28;4699;-61
2024/04/04 11:14:50;;;;;;;;;;;;;;;;;;5088837;28;4650;-62
2024/04/04 11:17:15;;;;;;;;;;;;;;;;;;5085755;28;1099;-62
2024/04/04 11:19:41;;;;;;;;;;;;;;;;;;5089407;28;4736;-61
2024/04/04 11:22:06;;;;;;;;;;;;;;;;;;5089021;28;5105;-61
2024/04/04 11:24:32;;;;;;;;;;;;;;;;;;5087592;28;4536;-61
2024/04/04 11:26:57;;;;;;;;;;;;;;;;;;5091138;28;5072;-61
2024/04/04 11:29:22;;;;;;;;;;;;;;;;;;5087998;28;1142;-62
2024/04/04 11:31:53;;;;;;;;;;;;;;;;;;5088898;28;4635;-61
2024/04/04 11:34:20;;;;;;;;;;;;;;;;;;5087367;28;5036;-62
2024/04/04 11:36:45;;;;;;;;;;;;;;;;;;5088814;28;5079;-61
2024/04/04 11:39:10;;;;;;;;;;;;;;;;;;5083138;28;5109;-60
2024/04/04 11:41:36;;;;;;;;;;;;;;;;;;5083675;28;1914;-62
2024/04/04 11:44:01;;;;;;;;;;;;;;;;;;5088834;28;4377;-61
2024/04/04 11:46:26;;;;;;;;;;;;;;;;;;5091792;28;4670;-61
2024/04/04 11:48:52;;;;;;;;;;;;;;;;;;5090923;28;5150;-61
2024/04/04 11:51:18;;;;;;;;;;;;;;;;;;5088125;28;5104;-61
2024/04/04 11:53:43;;;;;;;;;;;;;;;;;;5087073;28;4726;-61
2024/04/04 11:56:08;;;;;;;;;;;;;;;;;;5088757;28;1091;-62
2024/04/04 11:58:35;;;;;;;;;;;;;;;;;;5085993;28;4920;-61
2024/04/04 12:01:01;;;;;;;;;;;;;;;;;;5088214;28;4585;-63
2024/04/04 12:03:26;;;;;;;;;;;;;;;;;;5088768;28;5149;-60
2024/04/04 12:05:52;;;;;;;;;;;;;;;;;;5088329;28;5106;-61
2024/04/04 12:08:17;;;;;;;;;;;;;;;;;;5087743;28;2111;-61
2024/04/04 12:10:43;;;;;;;;;;;;;;;;;;5086821;28;5041;-61
2024/04/04 12:13:09;;;;;;;;;;;;;;;;;;5087926;28;5095;-62
2024/04/04 12:15:36;;;;;;;;;;;;;;;;;;5088062;28;5243;-61
2024/04/04 12:20:45;;;;;;;;;;;;;;;;;;5085545;28;5234;-62
2024/04/04 12:23:10;;;;;;;;;;;;;;;;;;5086881;28;3350;-62
2024/04/04 12:25:36;;;;;;;;;;;;;;;;;;5087763;28;5062;-62
2024/04/04 12:28:01;;;;;;;;;;;;;;;;;;5086995;28;5041;-61
2024/04/04 12:30:26;;;;;;;;;;;;;;;;;;5089023;28;4586;-61
2024/04/04 12:32:52;;;;;;;;;;;;;;;;;;5092670;28;4573;-61
2024/04/04 12:35:17;;;;;;;;;;;;;;;;;;5093545;28;2451;-60
2024/04/04 12:37:42;;;;;;;;;;;;;;;;;;5085886;28;5343;-60
2024/04/04 12:40:08;;;;;;;;;;;;;;;;;;5085927;28;4483;-61
2024/04/04 12:42:33;;;;;;;;;;;;;;;;;;5087688;28;5103;-61
2024/04/04 12:44:59;;;;;;;;;;;;;;;;;;5087596;28;5204;-61
2024/04/04 12:47:24;;;;;;;;;;;;;;;;;;5088190;28;1249;-60
2024/04/04 12:49:50;;;;;;;;;;;;;;;;;;5086215;28;4937;-62
2024/04/04 12:52:16;;;;;;;;;;;;;;;;;;5083824;28;5086;-61
2024/04/04 12:54:41;;;;;;;;;;;;;;;;;;5087213;28;4526;-62
2024/04/04 12:57:06;;;;;;;;;;;;;;;;;;5086540;28;4955;-62
2024/04/04 12:59:32;;;;;;;;;;;;;;;;;;5087096;28;3354;-62
2024/04/04 13:01:57;;;;;;;;;;;;;;;;;;5085324;28;4782;-62
2024/04/04 13:04:22;;;;;;;;;;;;;;;;;;5084790;28;4996;-62
2024/04/04 13:06:48;;;;;;;;;;;;;;;;;;5087481;28;4947;-61
2024/04/04 13:09:13;;;;;;;;;;;;;;;;;;5082278;28;4658;-61
2024/04/04 13:11:39;;;;;;;;;;;;;;;;;;5087956;28;1123;-61
2024/04/04 13:14:04;;;;;;;;;;;;;;;;;;5087258;28;4589;-61
2024/04/04 13:16:29;;;;;;;;;;;;;;;;;;5086963;28;5050;-61
2024/04/04 13:18:55;;;;;;;;;;;;;;;;;;5087181;28;5006;-61
2024/04/04 13:21:20;;;;;;;;;;;;;;;;;;5086377;28;4893;-61
2024/04/04 13:23:45;;;;;;;;;;;;;;;;;;5087634;28;4746;-61
2024/04/04 13:26:11;;;;;;;;;;;;;;;;;;5093648;28;1091;-61
2024/04/04 13:28:36;;;;;;;;;;;;;;;;;;5089598;28;4983;-61
2024/04/04 13:31:03;;;;;;;;;;;;;;;;;;5089118;28;5146;-61
2024/04/04 13:33:28;;;;;;;;;;;;;;;;;;5089757;28;4455;-61
2024/04/04 13:35:53;;;;;;;;;;;;;;;;;;5085918;28;5080;-61
2024/04/04 13:38:19;;;;;;;;;;;;;;;;;;5087982;28;1144;-61
2024/04/04 13:40:45;;;;;;;;;;;;;;;;;;5083471;28;5623;-61
2024/04/04 13:43:10;;;;;;;;;;;;;;;;;;5085505;28;4473;-62
2024/04/04 13:45:35;;;;;;;;;;;;;;;;;;5086782;28;5122;-61
2024/04/04 13:48:01;;;;;;;;;;;;;;;;;;5085959;28;5063;-62
2024/04/04 13:50:26;;;;;;;;;;;;;;;;;;5087834;28;1100;-61
2024/04/04 13:52:52;;;;;;;;;;;;;;;;;;5084074;28;5037;-61
2024/04/04 13:55:17;;;;;;;;;;;;;;;;;;5087254;28;4967;-60
2024/04/04 13:57:42;;;;;;;;;;;;;;;;;;5087085;28;4966;-62
2024/04/04 14:00:08;;;;;;;;;;;;;;;;;;5086884;28;4864;-61
2024/04/04 14:02:33;;;;;;;;;;;;;;;;;;5086311;28;3231;-61
2024/04/04 14:04:59;;;;;;;;;;;;;;;;;;5084377;28;4559;-61
2024/04/04 14:07:24;;;;;;;;;;;;;;;;;;5085336;28;4609;-61
2024/04/04 14:09:50;;;;;;;;;;;;;;;;;;5086462;28;4476;-62
2024/04/04 14:12:16;;;;;;;;;;;;;;;;;;5084402;28;5106;-61
2024/04/04 14:14:43;;;;;;;;;;;;;;;;;;5088012;28;4830;-61
2024/04/04 14:17:09;;;;;;;;;;;;;;;;;;5081992;28;3472;-60
2024/04/04 14:19:34;;;;;;;;;;;;;;;;;;5081590;28;4494;-60
2024/04/04 14:22:00;;;;;;;;;;;;;;;;;;5088296;28;4471;-61
2024/04/04 14:24:25;;;;;;;;;;;;;;;;;;5090279;28;5104;-60
2024/04/04 14:26:50;;;;;;;;;;;;;;;;;;5086067;28;5044;-60
2024/04/04 14:29:16;;;;;;;;;;;;;;;;;;5091209;28;3511;-61
2024/04/04 14:31:41;;;;;;;;;;;;;;;;;;5086232;28;5057;-61
2024/04/04 14:34:06;;;;;;;;;;;;;;;;;;5078283;28;5201;-61
2024/04/04 14:36:32;;;;;;;;;;;;;;;;;;5082198;28;4825;-64
2024/04/04 14:38:57;;;;;;;;;;;;;;;;;;5088604;28;4537;-67
2024/04/04 14:41:25;;;;;;;;;;;;;;;;;;5085429;28;3564;-69
2024/04/04 14:43:51;;;;;;;;;;;;;;;;;;5086574;28;5010;-63
2024/04/04 14:46:17;;;;;;;;;;;;;;;;;;5088016;28;5356;-62
2024/04/04 14:48:46;;;;;;;;;;;;;;;;;;5087503;28;5084;-62
2024/04/04 14:51:11;;;;;;;;;;;;;;;;;;5090354;28;4479;-64
2024/04/04 14:53:37;;;;;;;;;;;;;;;;;;5068254;28;3725;-64
2024/04/04 14:56:08;;;;;;;;;;;;;;;;;;5089767;28;4805;-63
2024/04/04 14:58:34;;;;;;;;;;;;;;;;;;5088232;28;4645;-63
2024/04/04 15:01:03;;;;;;;;;;;;;;;;;;5089573;28;4463;-63
2024/04/04 15:03:28;;;;;;;;;;;;;;;;;;5088105;28;4714;-62
2024/04/04 15:05:53;;;;;;;;;;;;;;;;;;5089861;28;5078;-63
2024/04/04 15:08:19;;;;;;;;;;;;;;;;;;5090142;28;1092;-63
2024/04/04 15:10:44;;;;;;;;;;;;;;;;;;5086452;28;5266;-63
2024/04/04 15:13:10;;;;;;;;;;;;;;;;;;5089571;28;5104;-64
2024/04/04 15:15:35;;;;;;;;;;;;;;;;;;5087737;28;4488;-63
2024/04/04 15:18:00;;;;;;;;;;;;;;;;;;5089664;28;4443;-64
2024/04/04 15:20:26;;;;;;;;;;;;;;;;;;5089028;28;3165;-64
2024/04/04 15:22:51;;;;;;;;;;;;;;;;;;5086604;28;4419;-62
2024/04/04 15:25:17;;;;;;;;;;;;;;;;;;5086860;28;4656;-63
2024/04/04 15:27:43;;;;;;;;;;;;;;;;;;5091184;28;5275;-63
2024/04/04 15:30:08;;;;;;;;;;;;;;;;;;5086299;28;5412;-63
2024/04/04 15:32:34;;;;;;;;;;;;;;;;;;5090369;28;3614;-62
2024/04/04 15:34:59;;;;;;;;;;;;;;;;;;5089406;28;4808;-63
2024/04/04 15:37:25;;;;;;;;;;;;;;;;;;5087073;28;5000;-63
2024/04/04 15:39:52;;;;;;;;;;;;;;;;;;5087248;28;5046;-62
2024/04/04 15:42:17;;;;;;;;;;;;;;;;;;5088578;28;5093;-62
2024/04/04 15:44:43;;;;;;;;;;;;;;;;;;5086532;28;5060;-63
2024/04/04 15:47:08;;;;;;;;;;;;;;;;;;5088997;28;3485;-63
2024/04/04 15:49:33;;;;;;;;;;;;;;;;;;5087226;28;4462;-63
2024/04/04 15:51:59;;;;;;;;;;;;;;;;;;5089237;28;4911;-62
2024/04/04 15:54:24;;;;;;;;;;;;;;;;;;5087241;28;5018;-62
2024/04/04 15:56:49;;;;;;;;;;;;;;;;;;5088780;28;4477;-62
2024/04/04 15:59:15;;;;;;;;;;;;;;;;;;5088882;28;1076;-62
2024/04/04 16:01:41;;;;;;;;;;;;;;;;;;5092251;28;5007;-62
2024/04/04 16:04:06;;;;;;;;;;;;;;;;;;5094167;27;4446;-64
2024/04/04 16:06:33;;;;;;;;;;;;;;;;;;5087132;28;5082;-63
2024/04/04 16:08:58;;;;;;;;;;;;;;;;;;5089145;28;4472;-63
2024/04/04 16:11:24;;;;;;;;;;;;;;;;;;5089837;28;2096;-62
2024/04/04 16:13:49;;;;;;;;;;;;;;;;;;5087138;28;5028;-63
2024/04/04 16:16:17;;;;;;;;;;;;;;;;;;5081188;28;4822;-62
2024/04/04 16:18:42;;;;;;;;;;;;;;;;;;5086653;28;5182;-62
2024/04/04 16:21:07;;;;;;;;;;;;;;;;;;5088194;28;4706;-62
2024/04/04 16:23:33;;;;;;;;;;;;;;;;;;5087038;28;3518;-63
2024/04/04 16:26:02;;;;;;;;;;;;;;;;;;5086478;28;5046;-63
2024/04/04 16:28:28;;;;;;;;;;;;;;;;;;5086436;28;5078;-63
2024/04/04 16:30:53;;;;;;;;;;;;;;;;;;5086448;28;4673;-63
2024/04/04 16:33:19;;;;;;;;;;;;;;;;;;5086952;28;4550;-63
2024/04/04 16:35:45;;;;;;;;;;;;;;;;;;5089331;28;4967;-62
2024/04/04 16:38:10;;;;;;;;;;;;;;;;;;5085305;28;3480;-64
2024/04/04 16:40:35;;;;;;;;;;;;;;;;;;5085743;28;5007;-63
2024/04/04 16:43:01;;;;;;;;;;;;;;;;;;5087849;28;5038;-62
2024/04/04 16:45:26;;;;;;;;;;;;;;;;;;5087405;28;4652;-62
2024/04/04 16:47:53;;;;;;;;;;;;;;;;;;5085859;28;5117;-63
2024/04/04 16:50:19;;;;;;;;;;;;;;;;;;5088467;28;1249;-62
2024/04/04 16:52:44;;;;;;;;;;;;;;;;;;5085113;28;5112;-62
2024/04/04 16:55:10;;;;;;;;;;;;;;;;;;5084448;28;5214;-62
2024/04/04 16:57:35;;;;;;;;;;;;;;;;;;5086180;28;4489;-63